sensor_id;sensor_type;location;lat;lon;timestamp;pressure;altitude;pressure_sealevel;temperature;humidity
53858;BME280;39763;51.188;6.690;2022-08-18T00:00:45;100891.34;;;22.78;68.03
53858;BME280;39763;51.188;6.690;2022-08-18T00:02:20;100899.50;;;22.77;67.95
53858;BME280;39763;51.188;6.690;2022-08-18T00:04:00;100896.06;;;22.75;67.83
53858;BME280;39763;51.188;6.690;2022-08-18T00:05:47;100900.81;;;22.71;67.86
53858;BME280;39763;51.188;6.690;2022-08-18T00:07:21;100905.19;;;22.72;67.75
53858;BME280;39763;51.188;6.690;2022-08-18T00:08:53;100900.81;;;22.71;67.82
53858;BME280;39763;51.188;6.690;2022-08-18T00:10:25;100904.34;;;22.72;67.75
53858;BME280;39763;51.188;6.690;2022-08-18T00:11:57;100909.69;;;22.72;67.86
53858;BME280;39763;51.188;6.690;2022-08-18T00:13:29;100914.34;;;22.70;67.82
53858;BME280;39763;51.188;6.690;2022-08-18T00:15:00;100913.75;;;22.66;67.77
53858;BME280;39763;51.188;6.690;2022-08-18T00:16:35;100912.28;;;22.62;67.84
53858;BME280;39763;51.188;6.690;2022-08-18T00:18:06;100916.16;;;22.58;68.02
53858;BME280;39763;51.188;6.690;2022-08-18T00:19:38;100912.91;;;22.55;68.07
53858;BME280;39763;51.188;6.690;2022-08-18T00:21:19;100914.00;;;22.52;68.04
53858;BME280;39763;51.188;6.690;2022-08-18T00:22:51;100912.41;;;22.49;68.10
53858;BME280;39763;51.188;6.690;2022-08-18T00:24:24;100915.34;;;22.46;68.18
53858;BME280;39763;51.188;6.690;2022-08-18T00:25:55;100926.28;;;22.43;68.30
53858;BME280;39763;51.188;6.690;2022-08-18T00:27:30;100921.19;;;22.40;68.40
53858;BME280;39763;51.188;6.690;2022-08-18T00:29:02;100919.50;;;22.39;68.44
53858;BME280;39763;51.188;6.690;2022-08-18T00:30:37;100921.19;;;22.40;68.58
53858;BME280;39763;51.188;6.690;2022-08-18T00:32:13;100915.84;;;22.40;68.74
53858;BME280;39763;51.188;6.690;2022-08-18T00:33:44;100911.31;;;22.41;68.56
53858;BME280;39763;51.188;6.690;2022-08-18T00:35:18;100913.88;;;22.42;68.74
53858;BME280;39763;51.188;6.690;2022-08-18T00:36:53;100923.59;;;22.43;68.74
53858;BME280;39763;51.188;6.690;2022-08-18T00:38:24;100923.47;;;22.45;68.75
53858;BME280;39763;51.188;6.690;2022-08-18T00:39:56;100916.19;;;22.47;68.70
53858;BME280;39763;51.188;6.690;2022-08-18T00:41:28;100919.59;;;22.49;68.58
53858;BME280;39763;51.188;6.690;2022-08-18T00:43:05;100912.41;;;22.49;68.64
53858;BME280;39763;51.188;6.690;2022-08-18T00:44:37;100905.94;;;22.41;69.15
53858;BME280;39763;51.188;6.690;2022-08-18T00:46:13;100920.59;;;22.26;69.56
53858;BME280;39763;51.188;6.690;2022-08-18T00:47:46;100913.03;;;22.08;69.92
53858;BME280;39763;51.188;6.690;2022-08-18T00:49:18;100907.25;;;21.91;70.87
53858;BME280;39763;51.188;6.690;2022-08-18T00:50:52;100915.84;;;21.83;71.32
53858;BME280;39763;51.188;6.690;2022-08-18T00:52:26;100918.91;;;21.78;71.37
53858;BME280;39763;51.188;6.690;2022-08-18T00:54:00;100918.50;;;21.72;71.54
53858;BME280;39763;51.188;6.690;2022-08-18T00:55:33;100918.97;;;21.66;71.66
53858;BME280;39763;51.188;6.690;2022-08-18T00:57:07;100910.69;;;21.58;72.13
53858;BME280;39763;51.188;6.690;2022-08-18T00:58:42;100906.03;;;21.49;72.25
53858;BME280;39763;51.188;6.690;2022-08-18T01:00:14;100911.69;;;21.33;73.16
53858;BME280;39763;51.188;6.690;2022-08-18T01:01:48;100906.50;;;21.19;73.77
53858;BME280;39763;51.188;6.690;2022-08-18T01:03:21;100907.06;;;21.11;74.19
53858;BME280;39763;51.188;6.690;2022-08-18T01:04:59;100900.75;;;21.12;74.17
53858;BME280;39763;51.188;6.690;2022-08-18T01:06:44;100907.06;;;21.11;74.17
53858;BME280;39763;51.188;6.690;2022-08-18T01:08:19;100907.53;;;21.05;74.40
53858;BME280;39763;51.188;6.690;2022-08-18T01:09:59;100915.97;;;20.99;74.99
53858;BME280;39763;51.188;6.690;2022-08-18T01:11:32;100919.94;;;20.93;75.14
53858;BME280;39763;51.188;6.690;2022-08-18T01:13:04;100912.50;;;20.86;75.25
53858;BME280;39763;51.188;6.690;2022-08-18T01:14:36;100907.38;;;20.83;75.44
53858;BME280;39763;51.188;6.690;2022-08-18T01:16:09;100911.38;;;20.77;75.92
53858;BME280;39763;51.188;6.690;2022-08-18T01:18:28;100904.75;;;20.70;76.28
53858;BME280;39763;51.188;6.690;2022-08-18T01:20:32;100910.88;;;20.59;76.97
53858;BME280;39763;51.188;6.690;2022-08-18T01:22:26;100909.50;;;20.54;77.12
53858;BME280;39763;51.188;6.690;2022-08-18T01:24:03;100906.72;;;20.55;77.04
53858;BME280;39763;51.188;6.690;2022-08-18T01:25:36;100902.13;;;20.57;76.99
53858;BME280;39763;51.188;6.690;2022-08-18T01:27:27;100909.16;;;20.58;77.09
53858;BME280;39763;51.188;6.690;2022-08-18T01:29:03;100907.47;;;20.57;77.39
53858;BME280;39763;51.188;6.690;2022-08-18T01:30:45;100896.78;;;20.57;77.36
53858;BME280;39763;51.188;6.690;2022-08-18T01:32:21;100898.72;;;20.55;77.22
53858;BME280;39763;51.188;6.690;2022-08-18T01:33:53;100903.09;;;20.56;77.24
53858;BME280;39763;51.188;6.690;2022-08-18T01:35:25;100912.00;;;20.68;76.78
53858;BME280;39763;51.188;6.690;2022-08-18T01:36:57;100912.94;;;20.80;76.39
53858;BME280;39763;51.188;6.690;2022-08-18T01:38:30;100915.44;;;20.94;75.56
53858;BME280;39763;51.188;6.690;2022-08-18T01:40:07;100919.91;;;21.06;75.10
53858;BME280;39763;51.188;6.690;2022-08-18T01:41:59;100918.38;;;21.15;74.44
53858;BME280;39763;51.188;6.690;2022-08-18T01:43:35;100920.50;;;21.22;73.81
53858;BME280;39763;51.188;6.690;2022-08-18T01:45:08;100927.94;;;21.30;73.56
53858;BME280;39763;51.188;6.690;2022-08-18T01:46:40;100928.09;;;21.39;73.19
53858;BME280;39763;51.188;6.690;2022-08-18T01:48:12;100926.78;;;21.45;72.91
53858;BME280;39763;51.188;6.690;2022-08-18T01:49:44;100926.34;;;21.51;72.34
53858;BME280;39763;51.188;6.690;2022-08-18T01:51:16;100925.88;;;21.57;72.19
53858;BME280;39763;51.188;6.690;2022-08-18T01:52:50;100930.88;;;21.62;71.86
53858;BME280;39763;51.188;6.690;2022-08-18T01:54:24;100936.84;;;21.65;71.64
53858;BME280;39763;51.188;6.690;2022-08-18T01:56:03;100947.16;;;21.70;71.21
53858;BME280;39763;51.188;6.690;2022-08-18T01:57:37;100939.97;;;21.59;71.95
53858;BME280;39763;51.188;6.690;2022-08-18T01:59:15;100944.44;;;21.48;72.21
53858;BME280;39763;51.188;6.690;2022-08-18T02:00:47;100941.22;;;21.42;72.65
53858;BME280;39763;51.188;6.690;2022-08-18T02:02:23;100946.06;;;21.37;73.05
53858;BME280;39763;51.188;6.690;2022-08-18T02:03:58;100944.38;;;21.36;73.05
53858;BME280;39763;51.188;6.690;2022-08-18T02:05:50;100951.28;;;21.39;73.18
53858;BME280;39763;51.188;6.690;2022-08-18T02:07:22;100946.53;;;21.31;73.71
53858;BME280;39763;51.188;6.690;2022-08-18T02:09:05;100952.53;;;21.22;74.13
53858;BME280;39763;51.188;6.690;2022-08-18T02:10:38;100944.84;;;21.30;73.91
53858;BME280;39763;51.188;6.690;2022-08-18T02:12:12;100942.28;;;21.29;74.07
53858;BME280;39763;51.188;6.690;2022-08-18T02:13:44;100944.00;;;21.17;74.39
53858;BME280;39763;51.188;6.690;2022-08-18T02:15:16;100946.16;;;21.12;74.80
53858;BME280;39763;51.188;6.690;2022-08-18T02:16:48;100950.00;;;21.08;74.94
53858;BME280;39763;51.188;6.690;2022-08-18T02:18:23;100948.31;;;21.07;75.15
53858;BME280;39763;51.188;6.690;2022-08-18T02:20:17;100945.78;;;20.93;76.06
53858;BME280;39763;51.188;6.690;2022-08-18T02:21:50;100938.78;;;20.79;76.77
53858;BME280;39763;51.188;6.690;2022-08-18T02:23:22;100934.53;;;20.64;77.20
53858;BME280;39763;51.188;6.690;2022-08-18T02:24:55;100934.16;;;20.57;77.69
53858;BME280;39763;51.188;6.690;2022-08-18T02:26:27;100934.16;;;20.57;77.59
53858;BME280;39763;51.188;6.690;2022-08-18T02:28:00;100934.91;;;20.59;77.59
53858;BME280;39763;51.188;6.690;2022-08-18T02:29:33;100917.06;;;20.60;77.93
53858;BME280;39763;51.188;6.690;2022-08-18T02:31:06;100912.69;;;20.59;77.86
53858;BME280;39763;51.188;6.690;2022-08-18T02:32:42;100907.88;;;20.51;78.48
53858;BME280;39763;51.188;6.690;2022-08-18T02:34:13;100900.44;;;20.44;78.73
53858;BME280;39763;51.188;6.690;2022-08-18T02:35:50;100897.44;;;20.35;79.10
53858;BME280;39763;51.188;6.690;2022-08-18T02:37:24;100899.34;;;20.33;79.46
53858;BME280;39763;51.188;6.690;2022-08-18T02:38:55;100899.91;;;20.26;79.97
53858;BME280;39763;51.188;6.690;2022-08-18T02:40:30;100899.38;;;20.21;80.37
53858;BME280;39763;51.188;6.690;2022-08-18T02:42:04;100902.28;;;20.18;80.44
53858;BME280;39763;51.188;6.690;2022-08-18T02:43:38;100904.28;;;20.27;80.01
53858;BME280;39763;51.188;6.690;2022-08-18T02:45:12;100904.16;;;20.28;80.00
53858;BME280;39763;51.188;6.690;2022-08-18T02:46:44;100897.03;;;20.29;80.03
53858;BME280;39763;51.188;6.690;2022-08-18T02:48:16;100904.69;;;20.21;80.30
53858;BME280;39763;51.188;6.690;2022-08-18T02:49:52;100907.81;;;20.15;80.76
53858;BME280;39763;51.188;6.690;2022-08-18T02:51:23;100909.72;;;20.13;81.07
53858;BME280;39763;51.188;6.690;2022-08-18T02:52:56;100903.53;;;20.12;81.06
53858;BME280;39763;51.188;6.690;2022-08-18T02:54:28;100907.06;;;20.13;81.19
53858;BME280;39763;51.188;6.690;2022-08-18T02:56:09;100906.72;;;20.04;81.90
53858;BME280;39763;51.188;6.690;2022-08-18T02:58:12;100908.78;;;20.01;82.10
53858;BME280;39763;51.188;6.690;2022-08-18T02:59:45;100904.59;;;20.10;81.73
53858;BME280;39763;51.188;6.690;2022-08-18T03:01:19;100904.59;;;20.10;81.68
53858;BME280;39763;51.188;6.690;2022-08-18T03:02:52;100901.72;;;20.13;81.81
53858;BME280;39763;51.188;6.690;2022-08-18T03:04:26;100904.81;;;20.06;82.24
53858;BME280;39763;51.188;6.690;2022-08-18T03:06:01;100904.41;;;20.00;82.54
53858;BME280;39763;51.188;6.690;2022-08-18T03:07:32;100908.88;;;19.99;82.86
53858;BME280;39763;51.188;6.690;2022-08-18T03:09:06;100905.97;;;19.90;83.18
53858;BME280;39763;51.188;6.690;2022-08-18T03:10:38;100898.31;;;19.85;83.89
53858;BME280;39763;51.188;6.690;2022-08-18T03:12:10;100899.47;;;19.81;84.13
53858;BME280;39763;51.188;6.690;2022-08-18T03:13:42;100900.03;;;19.86;84.03
53858;BME280;39763;51.188;6.690;2022-08-18T03:15:15;100898.94;;;19.89;83.50
53858;BME280;39763;51.188;6.690;2022-08-18T03:16:47;100901.09;;;19.96;83.13
53858;BME280;39763;51.188;6.690;2022-08-18T03:18:25;100903.66;;;20.11;82.63
53858;BME280;39763;51.188;6.690;2022-08-18T03:19:57;100903.84;;;20.20;82.03
53858;BME280;39763;51.188;6.690;2022-08-18T03:21:32;100905.78;;;20.31;81.35
53858;BME280;39763;51.188;6.690;2022-08-18T03:23:06;100901.41;;;20.42;80.85
53858;BME280;39763;51.188;6.690;2022-08-18T03:24:40;100904.25;;;20.52;80.08
53858;BME280;39763;51.188;6.690;2022-08-18T03:26:14;100910.06;;;20.46;80.23
53858;BME280;39763;51.188;6.690;2022-08-18T03:27:46;100907.06;;;20.38;80.35
53858;BME280;39763;51.188;6.690;2022-08-18T03:29:18;100906.31;;;20.36;80.46
53858;BME280;39763;51.188;6.690;2022-08-18T03:30:51;100909.94;;;20.48;80.45
53858;BME280;39763;51.188;6.690;2022-08-18T03:32:23;100912.78;;;20.57;79.86
53858;BME280;39763;51.188;6.690;2022-08-18T03:33:55;100917.25;;;20.69;79.74
53858;BME280;39763;51.188;6.690;2022-08-18T03:35:30;100909.94;;;20.84;78.75
53858;BME280;39763;51.188;6.690;2022-08-18T03:37:01;100909.88;;;20.97;78.23
53858;BME280;39763;51.188;6.690;2022-08-18T03:38:33;100907.28;;;21.08;77.66
53858;BME280;39763;51.188;6.690;2022-08-18T03:40:06;100906.56;;;21.06;77.33
53858;BME280;39763;51.188;6.690;2022-08-18T03:41:40;100905.19;;;21.00;77.29
53858;BME280;39763;51.188;6.690;2022-08-18T03:43:29;100913.03;;;20.91;77.57
53858;BME280;39763;51.188;6.690;2022-08-18T03:45:22;100909.50;;;20.90;77.57
53858;BME280;39763;51.188;6.690;2022-08-18T03:46:56;100912.28;;;20.89;77.82
53858;BME280;39763;51.188;6.690;2022-08-18T03:48:28;100918.13;;;20.94;77.64
53858;BME280;39763;51.188;6.690;2022-08-18T03:50:00;100919.59;;;20.98;77.46
53858;BME280;39763;51.188;6.690;2022-08-18T03:51:32;100914.06;;;21.01;77.56
53858;BME280;39763;51.188;6.690;2022-08-18T03:53:04;100921.88;;;21.15;77.06
53858;BME280;39763;51.188;6.690;2022-08-18T03:54:36;100913.97;;;21.26;76.85
53858;BME280;39763;51.188;6.690;2022-08-18T03:56:11;100920.09;;;21.39;76.04
53858;BME280;39763;51.188;6.690;2022-08-18T03:57:48;100913.09;;;21.50;75.68
53858;BME280;39763;51.188;6.690;2022-08-18T03:59:25;100907.91;;;21.59;75.22
53858;BME280;39763;51.188;6.690;2022-08-18T04:00:57;100907.28;;;21.56;74.90
53858;BME280;39763;51.188;6.690;2022-08-18T04:02:30;100905.34;;;21.58;74.73
53858;BME280;39763;51.188;6.690;2022-08-18T04:04:04;100908.88;;;21.58;74.61
53858;BME280;39763;51.188;6.690;2022-08-18T04:05:38;100910.69;;;21.58;74.66
53858;BME280;39763;51.188;6.690;2022-08-18T04:07:11;100911.06;;;21.64;74.58
53858;BME280;39763;51.188;6.690;2022-08-18T04:08:49;100912.38;;;21.59;74.39
53858;BME280;39763;51.188;6.690;2022-08-18T04:10:21;100901.47;;;21.62;74.57
53858;BME280;39763;51.188;6.690;2022-08-18T04:11:54;100913.63;;;21.66;74.31
53858;BME280;39763;51.188;6.690;2022-08-18T04:13:26;100901.59;;;21.71;73.92
53858;BME280;39763;51.188;6.690;2022-08-18T04:14:57;100896.66;;;21.78;73.80
53858;BME280;39763;51.188;6.690;2022-08-18T04:16:30;100902.13;;;21.88;73.53
53858;BME280;39763;51.188;6.690;2022-08-18T04:18:04;100899.09;;;21.92;73.32
53858;BME280;39763;51.188;6.690;2022-08-18T04:19:39;100904.22;;;21.95;73.10
53858;BME280;39763;51.188;6.690;2022-08-18T04:21:11;100913.72;;;21.99;72.91
53858;BME280;39763;51.188;6.690;2022-08-18T04:22:44;100919.81;;;22.01;72.86
53858;BME280;39763;51.188;6.690;2022-08-18T04:24:17;100910.16;;;21.99;72.65
53858;BME280;39763;51.188;6.690;2022-08-18T04:25:54;100916.63;;;21.96;72.57
53858;BME280;39763;51.188;6.690;2022-08-18T04:27:27;100920.84;;;21.88;72.95
53858;BME280;39763;51.188;6.690;2022-08-18T04:28:59;100914.13;;;21.82;73.31
53858;BME280;39763;51.188;6.690;2022-08-18T04:30:35;100913.63;;;21.66;73.57
53858;BME280;39763;51.188;6.690;2022-08-18T04:32:07;100905.94;;;21.50;74.36
53858;BME280;39763;51.188;6.690;2022-08-18T04:33:40;100905.31;;;21.46;74.56
53858;BME280;39763;51.188;6.690;2022-08-18T04:35:12;100909.47;;;21.51;74.73
53858;BME280;39763;51.188;6.690;2022-08-18T04:36:45;100903.41;;;21.60;74.23
53858;BME280;39763;51.188;6.690;2022-08-18T04:38:17;100915.81;;;21.61;74.26
53858;BME280;39763;51.188;6.690;2022-08-18T04:39:49;100906.69;;;21.63;74.26
53858;BME280;39763;51.188;6.690;2022-08-18T04:41:21;100905.34;;;21.69;73.96
53858;BME280;39763;51.188;6.690;2022-08-18T04:42:56;100900.53;;;21.74;73.80
53858;BME280;39763;51.188;6.690;2022-08-18T04:44:28;100904.06;;;21.86;73.63
53858;BME280;39763;51.188;6.690;2022-08-18T04:46:00;100909.31;;;21.98;73.23
53858;BME280;39763;51.188;6.690;2022-08-18T04:47:32;100904.03;;;22.09;72.97
53858;BME280;39763;51.188;6.690;2022-08-18T04:49:09;100913.03;;;22.20;72.35
53858;BME280;39763;51.188;6.690;2022-08-18T04:50:41;100923.00;;;22.29;72.05
53858;BME280;39763;51.188;6.690;2022-08-18T04:52:13;100922.13;;;22.28;71.72
53858;BME280;39763;51.188;6.690;2022-08-18T04:54:11;100914.72;;;22.21;71.63
53858;BME280;39763;51.188;6.690;2022-08-18T04:55:46;100915.69;;;22.20;71.72
53858;BME280;39763;51.188;6.690;2022-08-18T04:57:19;100922.03;;;22.19;72.14
53858;BME280;39763;51.188;6.690;2022-08-18T04:58:53;100919.97;;;22.33;72.04
53858;BME280;39763;51.188;6.690;2022-08-18T05:00:25;100934.69;;;22.50;71.77
53858;BME280;39763;51.188;6.690;2022-08-18T05:02:00;100926.63;;;22.72;71.32
53858;BME280;39763;51.188;6.690;2022-08-18T05:03:36;100935.50;;;22.95;70.55
53858;BME280;39763;51.188;6.690;2022-08-18T05:05:21;100929.50;;;23.14;69.63
53858;BME280;39763;51.188;6.690;2022-08-18T05:06:54;100930.75;;;23.31;68.90
53858;BME280;39763;51.188;6.690;2022-08-18T05:08:25;100940.94;;;23.48;68.39
53858;BME280;39763;51.188;6.690;2022-08-18T05:09:57;100940.78;;;23.61;67.71
53858;BME280;39763;51.188;6.690;2022-08-18T05:11:30;100934.41;;;23.73;67.12
53858;BME280;39763;51.188;6.690;2022-08-18T05:13:04;100936.41;;;23.80;66.68
53858;BME280;39763;51.188;6.690;2022-08-18T05:14:37;100940.72;;;23.92;66.12
53858;BME280;39763;51.188;6.690;2022-08-18T05:16:08;100936.31;;;24.03;65.91
53858;BME280;39763;51.188;6.690;2022-08-18T05:17:50;100934.91;;;24.08;65.39
53858;BME280;39763;51.188;6.690;2022-08-18T05:19:21;100931.97;;;24.11;64.96
53858;BME280;39763;51.188;6.690;2022-08-18T05:20:59;100930.13;;;24.12;64.72
53858;BME280;39763;51.188;6.690;2022-08-18T05:22:36;100942.56;;;24.13;64.63
53858;BME280;39763;51.188;6.690;2022-08-18T05:24:08;100934.13;;;24.17;64.48
53858;BME280;39763;51.188;6.690;2022-08-18T05:25:40;100942.59;;;24.22;64.05
53858;BME280;39763;51.188;6.690;2022-08-18T05:27:12;100948.22;;;24.31;64.12
53858;BME280;39763;51.188;6.690;2022-08-18T05:28:45;100944.97;;;24.37;63.73
53858;BME280;39763;51.188;6.690;2022-08-18T05:30:17;100944.44;;;24.43;63.41
53858;BME280;39763;51.188;6.690;2022-08-18T05:31:50;100952.78;;;24.49;63.13
53858;BME280;39763;51.188;6.690;2022-08-18T05:33:23;100954.56;;;24.60;63.09
53858;BME280;39763;51.188;6.690;2022-08-18T05:34:55;100944.47;;;24.52;62.70
53858;BME280;39763;51.188;6.690;2022-08-18T05:38:40;100943.84;;;24.39;62.57
53858;BME280;39763;51.188;6.690;2022-08-18T05:40:21;100956.97;;;24.12;62.78
53858;BME280;39763;51.188;6.690;2022-08-18T05:42:00;100952.00;;;23.86;63.81
53858;BME280;39763;51.188;6.690;2022-08-18T05:43:35;100960.88;;;23.66;64.26
53858;BME280;39763;51.188;6.690;2022-08-18T05:45:22;100950.53;;;23.62;65.07
53858;BME280;39763;51.188;6.690;2022-08-18T05:46:57;100948.19;;;23.68;65.01
53858;BME280;39763;51.188;6.690;2022-08-18T05:48:30;100962.00;;;23.84;65.04
53858;BME280;39763;51.188;6.690;2022-08-18T05:50:05;100954.22;;;24.02;64.17
53858;BME280;39763;51.188;6.690;2022-08-18T05:51:40;100952.06;;;24.17;63.97
53858;BME280;39763;51.188;6.690;2022-08-18T05:53:13;100959.19;;;24.28;63.67
53858;BME280;39763;51.188;6.690;2022-08-18T05:54:53;100962.34;;;24.33;63.34
53858;BME280;39763;51.188;6.690;2022-08-18T05:56:45;100965.19;;;24.41;63.04
53858;BME280;39763;51.188;6.690;2022-08-18T05:58:23;100970.47;;;24.52;62.93
53858;BME280;39763;51.188;6.690;2022-08-18T06:00:05;100968.84;;;24.60;62.28
53858;BME280;39763;51.188;6.690;2022-08-18T06:01:47;100963.28;;;24.52;62.29
53858;BME280;39763;51.188;6.690;2022-08-18T06:03:25;100966.38;;;24.48;62.15
53858;BME280;39763;51.188;6.690;2022-08-18T06:05:25;100966.09;;;24.51;62.30
53858;BME280;39763;51.188;6.690;2022-08-18T06:07:02;100977.03;;;24.59;62.25
53858;BME280;39763;51.188;6.690;2022-08-18T06:08:39;100974.63;;;24.66;62.02
53858;BME280;39763;51.188;6.690;2022-08-18T06:10:13;100978.75;;;24.70;61.72
53858;BME280;39763;51.188;6.690;2022-08-18T06:11:45;100984.44;;;24.76;61.46
53858;BME280;39763;51.188;6.690;2022-08-18T06:13:18;100978.50;;;24.82;61.37
53858;BME280;39763;51.188;6.690;2022-08-18T06:14:51;100988.47;;;24.91;61.16
53858;BME280;39763;51.188;6.690;2022-08-18T06:16:38;100981.84;;;24.95;60.92
53858;BME280;39763;51.188;6.690;2022-08-18T06:18:34;100985.25;;;24.98;60.62
53858;BME280;39763;51.188;6.690;2022-08-18T06:20:14;100984.84;;;25.02;60.71
53858;BME280;39763;51.188;6.690;2022-08-18T06:21:56;100986.13;;;25.08;60.21
53858;BME280;39763;51.188;6.690;2022-08-18T06:23:40;100986.81;;;25.10;60.04
53858;BME280;39763;51.188;6.690;2022-08-18T06:25:18;100987.41;;;25.13;60.35
53858;BME280;39763;51.188;6.690;2022-08-18T06:26:57;100991.94;;;25.13;59.94
53858;BME280;39763;51.188;6.690;2022-08-18T06:28:39;100991.06;;;25.03;60.11
53858;BME280;39763;51.188;6.690;2022-08-18T06:30:16;101001.34;;;24.67;60.75
53858;BME280;39763;51.188;6.690;2022-08-18T06:31:56;100994.88;;;24.39;61.85
53858;BME280;39763;51.188;6.690;2022-08-18T06:33:42;100992.84;;;24.32;62.27
53858;BME280;39763;51.188;6.690;2022-08-18T06:35:30;100994.34;;;24.24;62.11
53858;BME280;39763;51.188;6.690;2022-08-18T06:37:10;100999.31;;;24.08;62.80
53858;BME280;39763;51.188;6.690;2022-08-18T06:38:51;100997.28;;;24.01;63.03
53858;BME280;39763;51.188;6.690;2022-08-18T06:40:26;100998.91;;;23.92;63.36
53858;BME280;39763;51.188;6.690;2022-08-18T06:41:58;100995.66;;;23.88;63.46
53858;BME280;39763;51.188;6.690;2022-08-18T06:43:30;100997.00;;;23.83;63.55
53858;BME280;39763;51.188;6.690;2022-08-18T06:45:08;101000.97;;;23.68;64.14
53858;BME280;39763;51.188;6.690;2022-08-18T06:46:46;101003.84;;;23.55;64.87
53858;BME280;39763;51.188;6.690;2022-08-18T06:48:28;101003.59;;;23.58;65.10
53858;BME280;39763;51.188;6.690;2022-08-18T06:50:07;101006.09;;;23.60;65.08
53858;BME280;39763;51.188;6.690;2022-08-18T06:51:40;101006.50;;;23.55;65.16
53858;BME280;39763;51.188;6.690;2022-08-18T06:53:12;101006.13;;;23.48;65.32
53858;BME280;39763;51.188;6.690;2022-08-18T06:55:02;101011.03;;;23.43;65.58
53858;BME280;39763;51.188;6.690;2022-08-18T06:56:45;101005.19;;;23.38;65.83
53858;BME280;39763;51.188;6.690;2022-08-18T06:58:25;101014.69;;;23.31;66.19
53858;BME280;39763;51.188;6.690;2022-08-18T07:00:00;101005.59;;;23.23;66.24
53858;BME280;39763;51.188;6.690;2022-08-18T07:01:32;101007.78;;;23.17;66.37
53858;BME280;39763;51.188;6.690;2022-08-18T07:03:08;101009.28;;;23.10;66.85
53858;BME280;39763;51.188;6.690;2022-08-18T07:04:57;101007.59;;;22.98;67.42
53858;BME280;39763;51.188;6.690;2022-08-18T07:06:30;101019.16;;;22.99;67.44
53858;BME280;39763;51.188;6.690;2022-08-18T07:08:13;101002.81;;;23.02;67.46
53858;BME280;39763;51.188;6.690;2022-08-18T07:09:48;101007.31;;;23.01;67.55
53858;BME280;39763;51.188;6.690;2022-08-18T07:11:24;101010.63;;;22.94;67.71
53858;BME280;39763;51.188;6.690;2022-08-18T07:13:14;101006.03;;;22.84;68.25
53858;BME280;39763;51.188;6.690;2022-08-18T07:14:49;101012.72;;;22.79;68.40
53858;BME280;39763;51.188;6.690;2022-08-18T07:16:28;101011.00;;;22.78;68.52
53858;BME280;39763;51.188;6.690;2022-08-18T07:18:22;101010.97;;;22.56;69.58
53858;BME280;39763;51.188;6.690;2022-08-18T07:19:59;101008.16;;;22.46;69.99
53858;BME280;39763;51.188;6.690;2022-08-18T07:21:32;101016.53;;;22.30;70.44
53858;BME280;39763;51.188;6.690;2022-08-18T07:23:04;101019.19;;;22.19;71.23
53858;BME280;39763;51.188;6.690;2022-08-18T07:24:41;101020.66;;;22.23;71.06
53858;BME280;39763;51.188;6.690;2022-08-18T07:26:17;101021.25;;;22.27;71.27
53858;BME280;39763;51.188;6.690;2022-08-18T07:27:51;101011.66;;;22.24;71.12
53858;BME280;39763;51.188;6.690;2022-08-18T07:29:27;101015.06;;;22.26;71.08
53858;BME280;39763;51.188;6.690;2022-08-18T07:33:01;101007.88;;;22.15;71.34
53858;BME280;39763;51.188;6.690;2022-08-18T07:34:36;101010.41;;;22.17;71.87
53858;BME280;39763;51.188;6.690;2022-08-18T07:36:09;101007.50;;;22.20;71.36
53858;BME280;39763;51.188;6.690;2022-08-18T07:37:48;101010.75;;;22.12;71.59
53858;BME280;39763;51.188;6.690;2022-08-18T07:39:25;101007.84;;;22.04;71.93
53858;BME280;39763;51.188;6.690;2022-08-18T07:41:02;100998.84;;;22.05;71.89
53858;BME280;39763;51.188;6.690;2022-08-18T07:42:42;101003.97;;;22.08;71.88
53858;BME280;39763;51.188;6.690;2022-08-18T07:44:42;100994.13;;;22.09;71.86
53858;BME280;39763;51.188;6.690;2022-08-18T07:46:23;101001.28;;;22.08;71.98
53858;BME280;39763;51.188;6.690;2022-08-18T07:48:02;100999.59;;;22.19;71.68
53858;BME280;39763;51.188;6.690;2022-08-18T07:49:57;100988.91;;;22.30;71.24
53858;BME280;39763;51.188;6.690;2022-08-18T07:51:53;100994.03;;;22.33;70.97
53858;BME280;39763;51.188;6.690;2022-08-18T07:53:38;100987.94;;;22.42;70.62
53858;BME280;39763;51.188;6.690;2022-08-18T07:55:27;100987.22;;;22.29;70.89
53858;BME280;39763;51.188;6.690;2022-08-18T07:57:05;100986.47;;;22.27;70.95
53858;BME280;39763;51.188;6.690;2022-08-18T07:58:45;100980.03;;;22.29;70.91
53858;BME280;39763;51.188;6.690;2022-08-18T08:00:22;100991.38;;;22.44;70.74
53858;BME280;39763;51.188;6.690;2022-08-18T08:02:25;100990.38;;;22.56;70.34
53858;BME280;39763;51.188;6.690;2022-08-18T08:04:08;100999.66;;;22.74;69.84
53858;BME280;39763;51.188;6.690;2022-08-18T08:06:03;101009.69;;;22.83;69.34
53858;BME280;39763;51.188;6.690;2022-08-18T08:07:44;101011.59;;;22.93;69.04
53858;BME280;39763;51.188;6.690;2022-08-18T08:09:23;101006.75;;;22.98;68.79
53858;BME280;39763;51.188;6.690;2022-08-18T08:11:06;101005.03;;;22.97;68.49
53858;BME280;39763;51.188;6.690;2022-08-18T08:12:43;101001.38;;;22.98;68.49
53858;BME280;39763;51.188;6.690;2022-08-18T08:14:32;101000.63;;;23.07;68.11
53858;BME280;39763;51.188;6.690;2022-08-18T08:16:16;101004.13;;;23.18;67.72
53858;BME280;39763;51.188;6.690;2022-08-18T08:17:55;101015.44;;;23.33;67.30
53858;BME280;39763;51.188;6.690;2022-08-18T08:19:58;101019.53;;;23.48;67.05
53858;BME280;39763;51.188;6.690;2022-08-18T08:21:37;101024.44;;;23.54;66.58
53858;BME280;39763;51.188;6.690;2022-08-18T08:23:17;101026.16;;;23.44;65.85
53858;BME280;39763;51.188;6.690;2022-08-18T08:25:00;101021.69;;;23.23;66.48
53858;BME280;39763;51.188;6.690;2022-08-18T08:26:45;101017.19;;;23.12;66.87
53858;BME280;39763;51.188;6.690;2022-08-18T08:28:32;101018.91;;;23.13;67.31
53858;BME280;39763;51.188;6.690;2022-08-18T08:30:09;101024.53;;;22.99;67.67